Time;durP1;ratioP1;P1;durP2;ratioP2;P2;SDS_P1;SDS_P2;PMS_P1;PMS_P2;Temp;Humidity;BMP_temperature;BMP_pressure;BME280_temperature;BME280_humidity;BME280_pressure;Samples;Min_cycle;Max_cycle;Signal;HPM_P1;HPM_P2
2022/05/03 00:09:44;;;;;;;10.75;7.78;;;;;;;;;;20915610;28;20052;-61
2022/05/03 00:19:46;;;;;;;10.85;6.70;;;;;;;;;;20915915;28;20052;-63
2022/05/03 00:29:49;;;;;;;13.10;7.35;;;;;;;;;;20913947;28;20056;-65
2022/05/03 00:39:51;;;;;;;8.50;6.85;;;;;;;;;;20913203;28;20061;-61
2022/05/03 00:49:59;;;;;;;9.57;6.50;;;;;;;;;;20911855;28;20045;-62
2022/05/03 01:00:05;;;;;;;7.47;6.78;;;;;;;;;;20912690;28;20102;-62
2022/05/03 01:10:12;;;;;;;8.82;6.43;;;;;;;;;;20912147;28;20489;-63
2022/05/03 01:20:22;;;;;;;8.20;6.25;;;;;;;;;;20911163;28;20045;-63
2022/05/03 01:30:31;;;;;;;7.68;5.32;;;;;;;;;;20911325;28;20416;-62
2022/05/03 01:40:56;;;;;;;6.57;5.55;;;;;;;;;;20911785;28;20049;-63
2022/05/03 01:51:16;;;;;;;11.82;6.18;;;;;;;;;;20910892;28;20053;-67
2022/05/03 02:01:21;;;;;;;6.28;5.25;;;;;;;;;;20911105;28;20071;-61
2022/05/03 02:11:46;;;;;;;6.93;5.32;;;;;;;;;;20912373;28;20053;-62
2022/05/03 02:22:23;;;;;;;7.78;5.35;;;;;;;;;;20923584;28;20056;-62
2022/05/03 02:32:53;;;;;;;6.80;5.53;;;;;;;;;;20923174;28;20071;-63
2022/05/03 02:43:17;;;;;;;6.80;5.32;;;;;;;;;;20921289;28;20056;-64
2022/05/03 02:53:31;;;;;;;5.95;5.13;;;;;;;;;;20921860;28;20134;-65
2022/05/03 03:04:01;;;;;;;7.70;5.05;;;;;;;;;;20922017;28;20432;-61
2022/05/03 03:14:35;;;;;;;7.70;5.20;;;;;;;;;;20920536;28;20505;-61
2022/05/03 03:24:50;;;;;;;7.97;4.97;;;;;;;;;;20918642;28;20056;-59
2022/05/03 03:35:13;;;;;;;5.97;4.63;;;;;;;;;;20919552;28;20405;-62
2022/05/03 03:45:16;;;;;;;8.07;4.70;;;;;;;;;;20918544;28;20136;-63
2022/05/03 03:55:28;;;;;;;8.55;4.55;;;;;;;;;;20917393;28;20045;-63
2022/05/03 04:05:36;;;;;;;6.13;4.03;;;;;;;;;;20916226;28;20136;-61
2022/05/03 04:15:39;;;;;;;4.38;3.40;;;;;;;;;;20915251;28;20056;-63
2022/05/03 04:25:42;;;;;;;6.10;4.22;;;;;;;;;;20915376;28;20525;-66
2022/05/03 04:35:46;;;;;;;4.65;3.65;;;;;;;;;;20915260;28;20068;-63
2022/05/03 04:45:50;;;;;;;3.95;2.75;;;;;;;;;;20913501;28;20093;-60
2022/05/03 04:55:53;;;;;;;5.30;3.13;;;;;;;;;;20913364;28;20053;-60
2022/05/03 05:05:55;;;;;;;4.05;2.20;;;;;;;;;;20912209;28;20127;-63
2022/05/03 05:15:57;;;;;;;4.82;2.42;;;;;;;;;;20912469;28;20416;-61
2022/05/03 05:26:00;;;;;;;2.45;1.95;;;;;;;;;;20912865;28;20102;-61
2022/05/03 05:36:01;;;;;;;4.82;2.20;;;13.70;68.40;;;;;;20912315;28;20053;-62
2022/05/03 05:46:03;;;;;;;3.45;2.10;;;13.70;68.20;;;;;;20913449;28;20045;-63
2022/05/03 05:56:07;;;;;;;2.83;1.80;;;13.70;67.70;;;;;;20926682;28;20052;-63
2022/05/03 06:06:08;;;;;;;2.72;1.60;;;13.80;66.90;;;;;;20907516;28;20451;-65
2022/05/03 06:16:11;;;;;;;2.95;1.55;;;13.70;66.80;;;;;;20924971;28;20508;-62
2022/05/03 06:26:13;;;;;;;2.80;1.95;;;13.70;66.30;;;;;;20924370;28;20490;-65
2022/05/03 06:36:15;;;;;;;2.42;1.35;;;13.70;66.30;;;;;;20923234;28;20096;-60
2022/05/03 06:46:17;;;;;;;2.28;1.45;;;13.70;66.00;;;;;;20922142;28;20049;-61
2022/05/03 06:56:18;;;;;;;2.65;1.00;;;13.70;65.10;;;;;;20921949;28;20108;-61
2022/05/03 07:06:21;;;;;;;4.80;1.10;;;13.70;64.90;;;;;;20921549;28;20120;-60
2022/05/03 07:16:23;;;;;;;3.53;1.33;;;13.70;64.40;;;;;;20901917;28;20123;-62
2022/05/03 07:26:25;;;;;;;2.63;1.10;;;13.70;65.00;;;;;;20901869;28;20051;-62
2022/05/03 07:36:29;;;;;;;2.10;1.05;;;13.60;65.70;;;;;;20918714;28;20052;-67
2022/05/03 07:46:30;;;;;;;1.17;0.80;;;13.70;65.80;;;;;;20899884;28;20048;-59
2022/05/03 07:56:31;;;;;;;2.50;1.00;;;13.70;66.40;;;;;;20919593;28;20144;-64
2022/05/03 08:06:35;;;;;;;2.65;1.10;;;13.80;64.90;;;;;;20917441;28;20466;-61
2022/05/03 08:16:38;;;;;;;3.40;1.00;;;13.90;64.90;;;;;;20915929;28;20504;-60
2022/05/03 08:26:42;;;;;;;4.83;0.90;;;14.00;64.50;;;;;;20961193;28;20085;-64
2022/05/03 08:42:01;;;;;;;0.77;0.70;;;14.40;63.30;;;;;;20989177;28;20049;-64
2022/05/03 08:47:08;;;;;;;1.90;0.93;;;14.50;63.30;;;;;;20995325;28;20044;-68
2022/05/03 08:57:10;;;;;;;3.75;1.08;;;14.70;62.60;;;;;;20989704;28;20403;-64
2022/05/03 09:07:20;;;;;;;2.20;0.90;;;15.00;61.70;;;;;;20991988;28;20043;-64
2022/05/03 09:17:42;;;;;;;2.88;1.13;;;15.20;60.00;;;;;;20992321;28;20053;-65
2022/05/03 09:27:43;;;;;;;1.50;0.90;;;15.20;59.40;;;;;;20988214;28;20052;-60
2022/05/03 09:37:48;;;;;;;1.90;0.90;;;15.50;59.10;;;;;;21006173;28;20052;-60
2022/05/03 09:47:54;;;;;;;1.60;0.90;;;15.70;58.90;;;;;;20995809;28;20147;-57
2022/05/03 09:57:56;;;;;;;1.70;1.13;;;15.90;58.50;;;;;;20995815;28;20059;-61
2022/05/03 10:07:58;;;;;;;1.73;1.00;;;16.20;59.60;;;;;;21007322;28;20044;-57
2022/05/03 10:28:24;;;;;;;4.07;0.95;;;16.70;56.10;;;;;;21004644;28;20045;-59
2022/05/03 10:38:39;;;;;;;1.65;0.95;;;17.10;53.80;;;;;;21004398;28;20058;-59
2022/05/03 10:48:41;;;;;;;2.15;1.30;;;17.20;53.80;;;;;;21005107;28;20044;-60
2022/05/03 10:58:47;;;;;;;2.50;1.30;;;17.10;53.40;;;;;;21004542;28;20110;-65
2022/05/03 11:19:15;;;;;;;2.42;1.35;;;17.00;53.40;;;;;;21002042;28;20052;-66
2022/05/03 11:29:19;;;;;;;1.63;1.10;;;17.30;51.80;;;;;;21003294;28;20040;-63
2022/05/03 11:39:22;;;;;;;3.78;1.85;;;17.30;51.90;;;;;;21000756;28;20052;-69
2022/05/03 11:49:23;;;;;;;3.90;2.67;;;17.30;51.70;;;;;;20998291;28;20629;-61
2022/05/03 11:59:25;;;;;;;4.18;2.95;;;16.80;54.50;;;;;;20997814;28;20059;-59
2022/05/03 12:09:27;;;;;;;5.00;2.90;;;;;;;;;;20979200;28;20048;-61
2022/05/03 12:19:33;;;;;;;3.65;1.75;;;;;;;;;;20997545;28;20056;-61
2022/05/03 12:29:34;;;;;;;3.35;1.75;;;;;;;;;;20998157;28;20052;-63
2022/05/03 12:39:37;;;;;;;4.07;1.90;;;;;;;;;;20996420;28;20045;-62
2022/05/03 12:49:38;;;;;;;3.78;1.77;;;;;;;;;;20996268;28;20044;-61
2022/05/03 12:59:40;;;;;;;2.53;1.63;;;;;;;;;;20995486;28;20052;-61
2022/05/03 13:09:42;;;;;;;3.00;1.75;;;;;;;;;;20995664;28;20370;-62
2022/05/03 13:19:45;;;;;;;3.47;1.50;;;;;;;;;;20994888;28;20049;-61
2022/05/03 13:29:47;;;;;;;4.03;1.40;;;;;;;;;;20995229;28;20420;-62
2022/05/03 13:50:10;;;;;;;2.38;1.80;;;;;;;;;;20993391;28;20041;-61
2022/05/03 14:00:11;;;;;;;4.88;1.67;;;;;;;;;;20994152;28;20052;-62
2022/05/03 14:10:13;;;;;;;2.28;1.40;;;;;;;;;;20999639;28;20056;-60
2022/05/03 14:20:15;;;;;;;3.30;2.00;;;;;;;;;;21006832;28;20052;-60
2022/05/03 14:30:18;;;;;;;2.72;2.20;;;;;;;;;;21006470;28;20481;-64
2022/05/03 14:40:19;;;;;;;4.07;2.40;;;;;;;;;;21006006;28;20048;-61
2022/05/03 14:50:22;;;;;;;5.05;2.83;;;;;;;;;;21005058;28;20041;-62
2022/05/03 15:10:44;;;;;;;4.38;2.67;;;;;;;;;;21002990;28;20052;-59
2022/05/03 15:20:45;;;;;;;4.25;2.72;;;;;;;;;;21002891;28;20052;-60
2022/05/03 15:30:50;;;;;;;3.85;2.53;;;;;;;;;;21001598;28;20048;-62
2022/05/03 15:40:52;;;;;;;4.43;2.47;;;;;;;;;;20999089;28;20052;-62
2022/05/03 15:50:53;;;;;;;5.82;2.95;;;;;;;;;;20980004;28;20044;-58
2022/05/03 16:00:55;;;;;;;4.22;3.10;;;;;;;;;;20997508;28;20052;-60
2022/05/03 16:10:59;;;;;;;5.28;2.97;;;;;;;;;;20998939;28;20511;-62
2022/05/03 16:21:01;;;;;;;5.85;3.95;;;;;;;;;;20998133;28;20079;-62
2022/05/03 16:31:07;;;;;;;7.90;3.20;;;;;;;;;;20997643;28;20049;-63
2022/05/03 16:51:30;;;;;;;8.35;5.15;;;;;;;;;;20996846;28;20045;-61
2022/05/03 17:01:31;;;;;;;5.95;3.95;;;;;;;;;;20995409;28;20059;-62
2022/05/03 17:11:37;;;;;;;6.35;4.05;;;;;;;;;;20996147;28;20509;-62
2022/05/03 17:21:39;;;;;;;10.60;5.20;;;;;;;;;;20994939;28;20060;-62
2022/05/03 17:31:42;;;;;;;6.00;4.32;;;;;;;;;;20994167;28;20055;-63
2022/05/03 17:41:44;;;;;;;5.50;3.88;;;;;;;;;;20995877;28;20613;-59
2022/05/03 18:02:06;;;;;;;6.53;4.93;;;;;;;;;;21004273;28;20048;-60
2022/05/03 18:12:09;;;;;;;7.40;4.78;;;;;;;;;;21005320;28;20110;-61
2022/05/03 18:22:14;;;;;;;6.40;4.63;;;;;;;;;;21002405;28;20048;-63
2022/05/03 18:32:16;;;;;;;8.68;4.97;;;;;;;;;;21004679;28;20045;-67
2022/05/03 18:42:18;;;;;;;8.80;4.90;;;;;;;;;;21002806;28;20472;-60
2022/05/03 18:52:20;;;;;;;9.27;5.25;;;;;;;;;;21002845;28;20044;-60
2022/05/03 19:02:21;;;;;;;12.70;10.38;;;;;;;;;;21002041;28;20424;-58
2022/05/03 19:12:24;;;;;;;11.48;5.95;;;;;;;;;;21000280;28;20097;-63
2022/05/03 19:22:25;;;;;;;9.73;5.78;;;;;;;;;;20999927;28;20052;-61
2022/05/03 19:32:27;;;;;;;7.53;4.57;;;;;;;;;;20999205;28;20051;-59
2022/05/03 19:42:28;;;;;;;8.15;4.45;;;;;;;;;;20998912;28;20051;-62
2022/05/03 19:52:31;;;;;;;8.57;4.97;;;;;;;;;;20996811;28;20045;-58
2022/05/03 20:02:33;;;;;;;7.53;5.22;;;;;;;;;;20995368;28;20075;-63
2022/05/03 20:12:35;;;;;;;10.00;5.65;;;;;;;;;;20995425;28;20443;-61
2022/05/03 20:22:37;;;;;;;8.15;5.30;;;;;;;;;;20979765;28;20079;-67
2022/05/03 20:32:42;;;;;;;5.82;5.00;;;;;;;;;;20997551;28;20048;-68
2022/05/03 20:42:44;;;;;;;10.25;5.63;;;;;;;;;;20995706;28;20053;-69
2022/05/03 20:52:45;;;;;;;8.00;5.45;;;;;;;;;;20996323;28;20392;-71
2022/05/03 21:02:48;;;;;;;9.25;5.55;;;;;;;;;;20995689;28;20053;-66
2022/05/03 21:12:50;;;;;;;9.50;5.90;;;;;;;;;;20996099;28;20426;-70
2022/05/03 21:22:51;;;;;;;8.30;6.20;;;;;;;;;;21018452;28;20052;-70
2022/05/03 21:32:57;;;;;;;9.57;5.72;;;;;;;;;;21022420;28;20075;-68
2022/05/03 21:42:59;;;;;;;9.40;5.38;;;;;;;;;;21022192;28;20049;-66
2022/05/03 21:53:00;;;;;;;7.68;5.47;;;;;;;;;;21022099;28;20048;-71
2022/05/03 22:03:02;;;;;;;10.07;5.75;;;;;;;;;;21023440;28;20162;-71
2022/05/03 22:13:04;;;;;;;7.15;5.40;;;;;;;;;;21021016;28;20060;-65
2022/05/03 22:23:06;;;;;;;8.10;5.50;;;;;;;;;;21020740;28;20092;-63
2022/05/03 22:33:07;;;;;;;8.40;5.72;;;;;;;;;;21010672;28;20048;-63
2022/05/03 22:43:09;;;;;;;9.13;5.10;;;;;;;;;;21004942;28;20110;-63
2022/05/03 22:53:11;;;;;;;7.10;5.10;;;;;;;;;;21005261;28;20054;-61
2022/05/03 23:03:13;;;;;;;5.55;4.22;;;;;;;;;;21004635;28;20562;-63
2022/05/03 23:13:17;;;;;;;7.32;4.88;;;;;;;;;;21003607;28;20382;-62
2022/05/03 23:23:20;;;;;;;;;;;;;;;;;;21002917;28;20062;-63
2022/05/03 23:33:22;;;;;;;5.85;4.55;;;;;;;;;;21003090;28;19927;-63
2022/05/03 23:43:24;;;;;;;8.65;4.80;;;;;;;;;;20999882;28;20131;-64
2022/05/03 23:53:25;;;;;;;8.25;5.28;;;;;;;;;;21000804;28;20055;-63
